createdAt,value
2019-04-05T00:02:39.284Z,94586.61
2019-04-05T00:05:26.641Z,94592.61
2019-04-05T00:08:14.064Z,94591.84
2019-04-05T00:11:01.707Z,94596.23
2019-04-05T00:13:49.056Z,94587.26
2019-04-05T00:16:36.165Z,94589.49
2019-04-05T00:19:23.580Z,94583.93
2019-04-05T00:22:11.189Z,94579.51
2019-04-05T00:24:58.682Z,94571.47
2019-04-05T00:27:46.770Z,94574.02
2019-04-05T00:30:34.523Z,94576.50
2019-04-05T00:33:22.594Z,94584.33
2019-04-05T00:36:10.427Z,94596.13
2019-04-05T00:38:57.844Z,94603.45
2019-04-05T00:41:45.568Z,94603.19
2019-04-05T00:44:32.811Z,94609.48
2019-04-05T00:47:20.437Z,94608.83
2019-04-05T00:50:08.466Z,94613.98
2019-04-05T00:52:55.947Z,94611.97
2019-04-05T00:55:43.360Z,94615.86
2019-04-05T00:58:31.084Z,94620.48
2019-04-05T01:01:18.453Z,94615.00
2019-04-05T01:04:06.244Z,94610.19
2019-04-05T01:06:53.714Z,94610.88
2019-04-05T01:09:41.194Z,94611.44
2019-04-05T01:12:28.860Z,94611.06
2019-04-05T01:15:17.249Z,94604.22
2019-04-05T01:18:04.997Z,94609.48
2019-04-05T01:20:54.221Z,94602.99
2019-04-05T01:23:41.298Z,94606.32
2019-04-05T01:26:28.565Z,94605.67
2019-04-05T01:29:15.744Z,94600.16
2019-04-05T01:32:03.078Z,94617.61
2019-04-05T01:34:50.737Z,94610.70
2019-04-05T01:37:38.595Z,94615.41
2019-04-05T01:40:27.443Z,94606.77
2019-04-05T01:43:15.328Z,94606.16
2019-04-05T01:46:03.200Z,94604.33
2019-04-05T01:48:50.687Z,94604.46
2019-04-05T01:51:37.857Z,94608.31
2019-04-05T01:54:25.468Z,94601.17
2019-04-05T01:57:13.254Z,94601.26
2019-04-05T02:00:00.578Z,94602.23
2019-04-05T02:02:48.181Z,94597.56
2019-04-05T02:05:35.943Z,94603.08
2019-04-05T02:08:23.343Z,94603.20
2019-04-05T02:11:10.752Z,94600.12
2019-04-05T02:13:58.379Z,94601.26
2019-04-05T02:16:45.960Z,94602.23
2019-04-05T02:19:33.396Z,94605.95
2019-04-05T02:22:20.970Z,94601.39
2019-04-05T02:25:08.555Z,94600.59
2019-04-05T02:27:56.466Z,94604.22
2019-04-05T02:30:43.869Z,94593.17
2019-04-05T02:33:31.285Z,94596.67
2019-04-05T02:36:18.811Z,94595.85
2019-04-05T02:39:07.398Z,94596.39
2019-04-05T02:41:56.902Z,94589.23
2019-04-05T02:44:45.807Z,94588.22
2019-04-05T02:47:34.014Z,94589.64
2019-04-05T02:50:21.835Z,94582.81
2019-04-05T02:53:11.388Z,94582.81
2019-04-05T02:56:02.761Z,94576.73
2019-04-05T02:58:48.800Z,94578.80
2019-04-05T03:01:36.717Z,94581.47
2019-04-05T03:04:24.548Z,94586.67
2019-04-05T03:07:13.129Z,94585.47
2019-04-05T03:10:00.878Z,94590.26
2019-04-05T03:12:48.699Z,94591.84
2019-04-05T03:15:36.262Z,94589.64
2019-04-05T03:18:23.965Z,94585.66
2019-04-05T03:21:13.126Z,94583.56
2019-04-05T03:24:03.555Z,94582.22
2019-04-05T03:26:56.585Z,94588.27
2019-04-05T03:29:44.213Z,94582.14
2019-04-05T03:32:31.919Z,94579.55
2019-04-05T03:35:19.433Z,94578.17
2019-04-05T03:38:07.738Z,94578.08
2019-04-05T03:40:55.538Z,94573.19
2019-04-05T03:43:42.898Z,94576.74
2019-04-05T03:46:30.767Z,94579.47
2019-04-05T03:49:18.994Z,94581.45
2019-04-05T03:52:07.219Z,94583.28
2019-04-05T03:54:54.988Z,94584.09
2019-04-05T03:57:42.790Z,94587.98
2019-04-05T04:00:30.343Z,94589.32
2019-04-05T04:03:18.218Z,94585.31
2019-04-05T04:06:06.107Z,94586.12
2019-04-05T04:08:53.482Z,94590.53
2019-04-05T04:11:41.041Z,94591.81
2019-04-05T04:14:29.453Z,94592.34
2019-04-05T04:17:17.540Z,94600.14
2019-04-05T04:20:05.464Z,94610.48
2019-04-05T04:22:53.014Z,94606.06
2019-04-05T04:25:41.547Z,94599.80
2019-04-05T04:28:29.985Z,94599.48
2019-04-05T04:31:17.677Z,94600.59
2019-04-05T04:34:06.688Z,94595.88
2019-04-05T04:36:54.335Z,94590.39
2019-04-05T04:39:42.080Z,94592.40
2019-04-05T04:42:29.850Z,94598.24
2019-04-05T04:45:18.125Z,94595.14
2019-04-05T04:48:05.603Z,94595.31
2019-04-05T04:50:53.518Z,94598.55
2019-04-05T04:53:41.034Z,94600.31
2019-04-05T04:56:29.113Z,94594.48
2019-04-05T04:59:16.945Z,94595.31
2019-04-05T05:02:04.645Z,94605.48
2019-04-05T05:04:52.581Z,94604.59
2019-04-05T05:07:40.722Z,94609.48
2019-04-05T05:10:28.275Z,94612.13
2019-04-05T05:13:15.530Z,94614.23
2019-04-05T05:16:03.225Z,94619.30
2019-04-05T05:18:51.002Z,94621.90
2019-04-05T05:21:38.778Z,94614.03
2019-04-05T05:24:27.211Z,94612.94
2019-04-05T05:27:14.870Z,94606.44
2019-04-05T05:30:02.479Z,94604.22
2019-04-05T05:32:50.425Z,94605.80
2019-04-05T05:35:37.907Z,94610.30
2019-04-05T05:38:25.881Z,94608.68
2019-04-05T05:41:13.632Z,94617.36
2019-04-05T05:44:01.459Z,94611.42
2019-04-05T05:46:49.297Z,94605.42
2019-04-05T05:49:36.919Z,94607.24
2019-04-05T05:52:25.261Z,94606.70
2019-04-05T05:55:12.808Z,94608.77
2019-04-05T05:58:00.432Z,94607.50
2019-04-05T06:00:48.079Z,94608.47
2019-04-05T06:03:35.505Z,94605.00
2019-04-05T06:06:22.873Z,94604.63
2019-04-05T06:09:10.265Z,94607.63
2019-04-05T06:11:58.117Z,94608.73
2019-04-05T06:14:45.338Z,94603.52
2019-04-05T06:17:32.504Z,94603.28
2019-04-05T06:20:20.285Z,94608.73
2019-04-05T06:23:08.129Z,94619.44
2019-04-05T06:25:55.574Z,94615.34
2019-04-05T06:28:42.720Z,94612.20
2019-04-05T06:31:29.971Z,94607.62
2019-04-05T06:34:17.524Z,94604.40
2019-04-05T06:37:05.281Z,94612.75
2019-04-05T06:39:52.670Z,94609.60
2019-04-05T06:42:40.347Z,94602.42
2019-04-05T06:45:27.818Z,94604.95
2019-04-05T06:48:19.298Z,94597.13
2019-04-05T06:51:04.673Z,94599.98
2019-04-05T06:53:52.288Z,94590.84
2019-04-05T06:56:39.745Z,94593.16
2019-04-05T06:59:27.325Z,94588.70
2019-04-05T07:02:14.943Z,94583.86
2019-04-05T07:05:02.594Z,94589.66
2019-04-05T07:07:49.697Z,94586.66
2019-04-05T07:10:37.903Z,94581.30
2019-04-05T07:13:27.475Z,94590.69
2019-04-05T07:16:14.447Z,94587.53
2019-04-05T07:19:02.188Z,94585.87
2019-04-05T07:21:50.231Z,94585.17
2019-04-05T07:24:37.794Z,94589.23
2019-04-05T07:27:25.250Z,94584.78
2019-04-05T07:30:12.683Z,94588.80
2019-04-05T07:33:00.309Z,94586.35
2019-04-05T07:35:47.967Z,94587.41
2019-04-05T07:38:35.479Z,94585.95
2019-04-05T07:41:22.916Z,94587.77
2019-04-05T07:44:10.345Z,94584.31
2019-04-05T07:46:58.027Z,94580.38
2019-04-05T07:49:45.367Z,94583.47
2019-04-05T07:52:32.501Z,94583.94
2019-04-05T07:55:20.240Z,94585.09
2019-04-05T07:58:07.765Z,94578.22
2019-04-05T08:00:56.404Z,94578.23
2019-04-05T08:03:43.856Z,94576.84
2019-04-05T08:06:32.662Z,94574.45
2019-04-05T08:09:20.578Z,94571.11
2019-04-05T08:12:08.410Z,94567.34
2019-04-05T08:14:56.094Z,94565.45
2019-04-05T08:17:43.428Z,94568.14
2019-04-05T08:20:30.945Z,94566.56
2019-04-05T08:23:18.308Z,94563.53
2019-04-05T08:26:05.726Z,94571.99
2019-04-05T08:28:53.510Z,94569.53
2019-04-05T08:31:41.093Z,94565.09
2019-04-05T08:34:28.457Z,94568.24
2019-04-05T08:37:16.045Z,94575.22
2019-04-05T08:40:03.456Z,94569.80
2019-04-05T08:42:51.271Z,94565.09
2019-04-05T08:45:38.874Z,94559.92
2019-04-05T08:48:26.707Z,94562.08
2019-04-05T08:51:14.501Z,94553.59
2019-04-05T08:54:01.910Z,94555.38
2019-04-05T08:56:49.945Z,94548.89
2019-04-05T08:59:37.664Z,94557.95
2019-04-05T09:02:25.126Z,94550.16
2019-04-05T09:05:13.116Z,94555.70
2019-04-05T09:08:00.356Z,94551.63
2019-04-05T09:10:47.607Z,94541.59
2019-04-05T09:13:35.223Z,94545.95
2019-04-05T09:16:22.476Z,94541.75
2019-04-05T09:19:22.750Z,94541.33
2019-04-05T09:21:59.406Z,94539.47
2019-04-05T09:24:47.341Z,94539.73
2019-04-05T09:27:34.701Z,94528.08
2019-04-05T09:30:22.586Z,94534.25
2019-04-05T09:33:09.790Z,94520.36
2019-04-05T09:35:57.178Z,94529.59
2019-04-05T09:38:44.379Z,94528.68
2019-04-05T09:41:32.331Z,94535.17
2019-04-05T09:44:20.098Z,94532.65
2019-04-05T09:47:07.289Z,94530.42
2019-04-05T09:49:54.293Z,94522.45
2019-04-05T09:52:42.103Z,94534.70
2019-04-05T09:55:29.469Z,94527.13
2019-04-05T09:58:17.137Z,94524.66
2019-04-05T10:01:04.887Z,94527.95
2019-04-05T10:03:52.637Z,94526.19
2019-04-05T10:06:40.017Z,94519.95
2019-04-05T10:09:27.680Z,94521.31
2019-04-05T10:12:15.667Z,94516.59
2019-04-05T10:15:02.774Z,94510.94
2019-04-05T10:17:50.628Z,94523.53
2019-04-05T10:20:39.091Z,94516.34
2019-04-05T10:23:27.318Z,94508.06
2019-04-05T10:26:14.953Z,94509.17
2019-04-05T10:29:02.362Z,94505.14
2019-04-05T10:31:49.932Z,94508.28
2019-04-05T10:34:37.162Z,94498.44
2019-04-05T10:37:24.799Z,94493.98
2019-04-05T10:40:13.384Z,94493.66
2019-04-05T10:43:01.614Z,94485.41
2019-04-05T10:45:49.031Z,94492.58
2019-04-05T10:48:36.827Z,94497.33
2019-04-05T10:51:26.362Z,94487.11
2019-04-05T10:54:13.844Z,94495.78
2019-04-05T10:57:01.507Z,94491.26
2019-04-05T10:59:48.877Z,94486.17
2019-04-05T11:02:36.203Z,94482.38
2019-04-05T11:05:23.484Z,94489.07
2019-04-05T11:08:11.222Z,94485.89
2019-04-05T11:10:58.571Z,94486.60
2019-04-05T11:13:45.923Z,94477.91
2019-04-05T11:16:33.348Z,94480.13
2019-04-05T11:19:21.065Z,94475.61
2019-04-05T11:22:08.880Z,94467.98
2019-04-05T11:24:56.019Z,94462.70
2019-04-05T11:27:43.879Z,94466.72
2019-04-05T11:30:42.682Z,94463.73
2019-04-05T11:33:30.308Z,94466.27
2019-04-05T11:36:18.144Z,94473.62
2019-04-05T11:39:07.876Z,94467.19
2019-04-05T11:41:56.636Z,94474.13
2019-04-05T11:44:44.402Z,94467.41
2019-04-05T11:47:32.140Z,94469.02
2019-04-05T11:50:20.049Z,94468.85
2019-04-05T11:53:07.752Z,94468.91
2019-04-05T11:55:55.288Z,94483.15
2019-04-05T11:58:45.181Z,94480.97
2019-04-05T12:01:51.552Z,94469.84
2019-04-05T12:04:38.883Z,94470.55
2019-04-05T12:07:27.486Z,94479.14
2019-04-05T12:10:18.729Z,94472.63
2019-04-05T12:13:04.057Z,94469.19
2019-04-05T12:15:51.942Z,94472.27
2019-04-05T12:18:39.761Z,94471.92
2019-04-05T12:21:27.539Z,94464.64
2019-04-05T12:24:15.363Z,94459.27
2019-04-05T12:27:04.843Z,94457.64
2019-04-05T12:29:51.959Z,94451.80
2019-04-05T12:32:41.546Z,94449.28
2019-04-05T12:35:29.287Z,94448.36
2019-04-05T12:38:31.569Z,94449.35
2019-04-05T12:41:19.293Z,94452.34
2019-04-05T12:44:06.678Z,94445.94
2019-04-05T12:46:54.076Z,94437.63
2019-04-05T12:49:41.390Z,94437.45
2019-04-05T12:52:29.069Z,94447.38
2019-04-05T12:55:16.629Z,94443.31
2019-04-05T12:58:03.779Z,94437.52
2019-04-05T13:00:51.276Z,94432.36
2019-04-05T13:03:39.012Z,94432.32
2019-04-05T13:06:26.630Z,94426.16
2019-04-05T13:09:14.674Z,94424.85
2019-04-05T13:12:02.181Z,94421.95
2019-04-05T13:14:49.205Z,94434.09
2019-04-05T13:17:37.073Z,94436.80
2019-04-05T13:20:25.022Z,94427.78
2019-04-05T13:23:12.928Z,94433.28
2019-04-05T13:26:00.919Z,94423.69
2019-04-05T13:28:49.185Z,94423.36
2019-04-05T13:31:36.965Z,94424.63
2019-04-05T13:34:25.890Z,94430.03
2019-04-05T13:37:20.258Z,94428.00
2019-04-05T13:40:02.875Z,94433.44
2019-04-05T13:42:50.942Z,94425.93
2019-04-05T13:45:38.898Z,94425.94
2019-04-05T13:48:26.582Z,94428.31
2019-04-05T13:51:14.024Z,94415.46
2019-04-05T13:54:01.923Z,94430.61
2019-04-05T13:56:49.841Z,94420.89
2019-04-05T13:59:37.213Z,94427.03
2019-04-05T14:02:24.672Z,94429.70
2019-04-05T14:05:12.800Z,94426.62
2019-04-05T14:08:09.785Z,94419.51
2019-04-05T14:10:49.360Z,94425.72
2019-04-05T14:13:42.127Z,94429.50
2019-04-05T14:16:26.779Z,94427.34
2019-04-05T14:19:18.296Z,94427.98
2019-04-05T14:22:08.931Z,94424.86
2019-04-05T14:24:56.573Z,94423.08
2019-04-05T14:27:42.392Z,94424.50
2019-04-05T14:30:32.463Z,94422.09
2019-04-05T14:33:18.979Z,94424.64
2019-04-05T14:36:06.968Z,94423.72
2019-04-05T14:38:54.814Z,94422.90
2019-04-05T14:41:41.912Z,94425.65
2019-04-05T14:44:29.565Z,94431.19
2019-04-05T14:47:19.765Z,94428.16
2019-04-05T14:50:07.145Z,94425.20
2019-04-05T14:52:54.756Z,94420.31
2019-04-05T14:55:42.299Z,94415.23
2019-04-05T14:58:29.416Z,94425.20
2019-04-05T15:01:17.514Z,94418.92
2019-04-05T15:04:05.177Z,94422.25
2019-04-05T15:06:52.896Z,94429.69
2019-04-05T15:09:39.955Z,94433.40
2019-04-05T15:12:29.086Z,94432.20
2019-04-05T15:15:17.127Z,94435.17
2019-04-05T15:18:04.654Z,94433.73
2019-04-05T15:20:52.054Z,94435.33
2019-04-05T15:23:41.271Z,94438.25
2019-04-05T15:26:28.052Z,94427.76
2019-04-05T15:29:15.401Z,94430.68
2019-04-05T15:32:02.787Z,94429.70
2019-04-05T15:34:50.319Z,94433.05
2019-04-05T15:37:37.982Z,94427.50
2019-04-05T15:40:25.427Z,94433.83
2019-04-05T15:43:13.212Z,94428.99
2019-04-05T15:46:00.920Z,94425.28
2019-04-05T15:48:51.480Z,94432.91
2019-04-05T15:51:37.649Z,94432.78
2019-04-05T15:54:29.123Z,94422.80
2019-04-05T15:57:16.829Z,94433.61
2019-04-05T16:00:06.132Z,94437.05
2019-04-05T16:02:53.333Z,94441.30
2019-04-05T16:05:41.757Z,94437.87
2019-04-05T16:08:29.570Z,94439.94
2019-04-05T16:11:16.941Z,94440.38
2019-04-05T16:14:04.477Z,94441.63
2019-04-05T16:16:53.670Z,94444.98
2019-04-05T16:19:41.789Z,94443.11
2019-04-05T16:22:31.418Z,94448.36
2019-04-05T16:25:18.157Z,94437.56
2019-04-05T16:28:05.692Z,94440.27
2019-04-05T16:30:53.770Z,94450.31
2019-04-05T16:33:41.130Z,94446.23
2019-04-05T16:36:31.017Z,94454.77
2019-04-05T16:39:19.275Z,94458.42
2019-04-05T16:42:06.643Z,94448.80
2019-04-05T16:44:54.179Z,94456.21
2019-04-05T16:47:41.580Z,94449.08
2019-04-05T16:50:28.811Z,94443.23
2019-04-05T16:53:16.594Z,94446.64
2019-04-05T16:56:03.780Z,94447.22
2019-04-05T16:58:52.387Z,94446.45
2019-04-05T17:01:39.846Z,94443.80
2019-04-05T17:04:27.464Z,94449.66
2019-04-05T17:07:14.847Z,94446.58
2019-04-05T17:10:02.250Z,94445.09
2019-04-05T17:12:50.025Z,94446.07
2019-04-05T17:15:37.593Z,94451.77
2019-04-05T17:18:25.067Z,94453.86
2019-04-05T17:21:12.642Z,94449.73
2019-04-05T17:24:00.189Z,94455.99
2019-04-05T17:26:47.829Z,94456.54
2019-04-05T17:29:35.715Z,94454.55
2019-04-05T17:32:23.121Z,94454.09
2019-04-05T17:35:10.988Z,94459.54
2019-04-05T17:37:58.104Z,94452.47
2019-04-05T17:40:45.590Z,94455.72
2019-04-05T17:43:33.125Z,94466.78
2019-04-05T17:46:20.583Z,94468.39
2019-04-05T17:49:08.393Z,94466.05
2019-04-05T17:51:56.346Z,94469.87
2019-04-05T17:54:43.560Z,94462.61
2019-04-05T17:57:30.999Z,94470.08
2019-04-05T18:00:22.345Z,94467.60
2019-04-05T18:03:09.653Z,94465.58
2019-04-05T18:05:57.226Z,94468.07
2019-04-05T18:08:44.878Z,94460.91
2019-04-05T18:11:32.505Z,94464.70
2019-04-05T18:14:19.973Z,94469.45
2019-04-05T18:17:07.622Z,94471.69
2019-04-05T18:19:55.921Z,94475.05
2019-04-05T18:22:43.410Z,94475.74
2019-04-05T18:25:30.858Z,94479.08
2019-04-05T18:28:18.657Z,94477.41
2019-04-05T18:31:06.024Z,94486.96
2019-04-05T18:33:54.288Z,94489.41
2019-04-05T18:36:41.400Z,94488.18
2019-04-05T18:39:28.824Z,94491.41
2019-04-05T18:42:16.248Z,94490.96
2019-04-05T18:45:03.866Z,94487.44
2019-04-05T18:47:51.800Z,94486.14
2019-04-05T18:50:39.192Z,94491.75
2019-04-05T18:53:37.003Z,94492.64
2019-04-05T18:56:16.093Z,94502.09
2019-04-05T18:59:03.749Z,94500.92
2019-04-05T19:01:51.185Z,94496.67
2019-04-05T19:04:38.308Z,94500.94
2019-04-05T19:07:26.034Z,94495.56
2019-04-05T19:10:14.001Z,94502.55
2019-04-05T19:13:01.641Z,94507.89
2019-04-05T19:15:49.688Z,94507.90
2019-04-05T19:18:37.747Z,94510.12
2019-04-05T19:21:25.349Z,94523.77
2019-04-05T19:24:12.737Z,94529.48
2019-04-05T19:27:00.277Z,94529.66
2019-04-05T19:29:47.805Z,94531.94
2019-04-05T19:49:31.049Z,94534.45
2019-04-05T19:52:18.708Z,94537.27
2019-04-05T19:55:06.989Z,94529.60
2019-04-05T19:57:54.703Z,94527.67
2019-04-05T20:00:42.199Z,94528.70
2019-04-05T20:03:29.612Z,94534.78
2019-04-05T20:06:17.047Z,94537.96
2019-04-05T20:09:06.706Z,94548.36
2019-04-05T20:11:54.064Z,94544.68
2019-04-05T20:14:41.599Z,94543.78
2019-04-05T20:17:29.266Z,94549.16
2019-04-05T20:20:17.033Z,94549.86
2019-04-05T20:23:05.120Z,94555.64
2019-04-05T20:25:52.742Z,94558.77
2019-04-05T20:28:40.471Z,94563.08
2019-04-05T20:31:27.986Z,94562.62
2019-04-05T20:34:15.621Z,94567.25
2019-04-05T20:37:03.002Z,94571.05
2019-04-05T20:39:50.896Z,94564.13
2019-04-05T20:42:37.980Z,94570.38
2019-04-05T20:45:25.653Z,94567.19
2019-04-05T20:48:13.425Z,94564.91
2019-04-05T20:51:00.987Z,94570.98
2019-04-05T20:53:48.429Z,94567.76
2019-04-05T20:56:36.354Z,94565.23
2019-04-05T20:59:23.952Z,94563.66
2019-04-05T21:02:11.403Z,94562.22
2019-04-05T21:04:58.502Z,94561.47
2019-04-05T21:07:45.929Z,94560.89
2019-04-05T21:10:33.692Z,94557.21
2019-04-05T21:13:20.840Z,94562.55
2019-04-05T21:16:08.190Z,94561.52
2019-04-05T21:18:55.558Z,94554.38
2019-04-05T21:21:43.237Z,94562.64
2019-04-05T21:24:36.036Z,94563.89
2019-04-05T21:27:19.664Z,94565.02
2019-04-05T21:30:07.524Z,94568.55
2019-04-05T21:32:55.255Z,94566.34
2019-04-05T21:35:42.977Z,94574.84
2019-04-05T21:38:30.394Z,94573.50
2019-04-05T21:41:17.933Z,94575.56
2019-04-05T21:44:05.381Z,94575.96
2019-04-05T21:46:53.741Z,94578.02
2019-04-05T21:49:41.409Z,94577.47
2019-04-05T21:52:29.337Z,94586.12
2019-04-05T21:55:16.606Z,94578.97
2019-04-05T21:58:04.032Z,94573.37
2019-04-05T22:00:55.256Z,94579.03
2019-04-05T22:03:42.772Z,94580.61
2019-04-05T22:06:29.901Z,94590.95
2019-04-05T22:09:17.435Z,94586.83
2019-04-05T22:12:05.226Z,94589.76
2019-04-05T22:14:52.528Z,94584.48
2019-04-05T22:17:40.182Z,94582.23
2019-04-05T22:20:27.841Z,94583.89
2019-04-05T22:23:15.310Z,94582.89
2019-04-05T22:26:03.141Z,94579.66
2019-04-05T22:28:50.925Z,94583.06
2019-04-05T22:31:38.316Z,94582.89
2019-04-05T22:34:25.844Z,94582.23
2019-04-05T22:37:13.582Z,94575.96
2019-04-05T22:40:01.035Z,94586.55
2019-04-05T22:42:48.532Z,94585.50
2019-04-05T22:45:36.039Z,94583.92
2019-04-05T22:48:23.811Z,94583.14
2019-04-05T22:51:11.178Z,94586.63
2019-04-05T22:53:58.865Z,94587.59
2019-04-05T22:56:46.444Z,94593.97
2019-04-05T22:59:34.567Z,94589.31
2019-04-05T23:02:22.049Z,94584.43
2019-04-05T23:05:09.612Z,94581.13
2019-04-05T23:07:56.735Z,94583.17
2019-04-05T23:10:44.219Z,94581.98
2019-04-05T23:13:31.337Z,94573.78
2019-04-05T23:16:18.821Z,94582.08
2019-04-05T23:19:06.838Z,94581.36
2019-04-05T23:21:53.913Z,94586.25
2019-04-05T23:24:41.629Z,94592.62
2019-04-05T23:27:29.152Z,94592.77
2019-04-05T23:30:18.205Z,94589.02
2019-04-05T23:33:05.982Z,94585.38
2019-04-05T23:35:53.888Z,94595.23
2019-04-05T23:38:41.397Z,94586.16
2019-04-05T23:41:28.917Z,94586.02
2019-04-05T23:44:16.465Z,94585.38
2019-04-05T23:47:04.264Z,94596.65
2019-04-05T23:49:51.674Z,94596.96
2019-04-05T23:52:39.606Z,94594.43
2019-04-05T23:55:33.083Z,94599.16
2019-04-05T23:58:16.834Z,94594.59
